Time,TemperatureF,DewpointF,PressureIn,WindDirection,WindDirectionDegrees,WindSpeedMPH,WindSpeedGustMPH,Humidity,HourlyPrecipIn,Conditions,Clouds,dailyrainin,SoftwareType,DateUTC
2013-05-03 00:01:00,64.8,56.0,30.06,East,99,0.0,1.0,73,0.00,,,0.00,weatherlink.com 1.10,2013-05-03 04:01:00,
2013-05-03 00:16:00,64.1,56.0,30.05,East,99,0.0,1.0,74,0.00,,,0.00,weatherlink.com 1.10,2013-05-03 04:16:00,
2013-05-03 00:31:00,63.3,56.0,30.05,East,99,0.0,1.0,76,0.00,,,0.00,weatherlink.com 1.10,2013-05-03 04:31:00,
2013-05-03 00:47:00,62.7,55.0,30.05,East,99,0.0,1.0,77,0.00,,,0.00,weatherlink.com 1.10,2013-05-03 04:47:00,
2013-05-03 01:02:00,62.3,55.0,30.05,East,99,0.0,0.0,78,0.00,,,0.00,weatherlink.com 1.10,2013-05-03 05:02:00,
2013-05-03 01:17:00,61.7,56.0,30.05,East,99,0.0,1.0,80,0.00,,,0.00,weatherlink.com 1.10,2013-05-03 05:17:00,
2013-05-03 01:32:00,61.1,56.0,30.05,East,99,0.0,1.0,82,0.00,,,0.00,weatherlink.com 1.10,2013-05-03 05:32:00,
2013-05-03 01:47:00,60.8,55.0,30.04,East,99,0.0,1.0,82,0.00,,,0.00,weatherlink.com 1.10,2013-05-03 05:47:00,
2013-05-03 02:02:00,60.4,55.0,30.04,East,99,0.0,0.0,82,0.00,,,0.00,weatherlink.com 1.10,2013-05-03 06:02:00,
2013-05-03 02:17:00,60.1,55.0,30.04,East,99,0.0,0.0,83,0.00,,,0.00,weatherlink.com 1.10,2013-05-03 06:17:00,
2013-05-03 02:32:00,59.9,55.0,30.04,SE,134,0.0,1.0,84,0.00,,,0.00,weatherlink.com 1.10,2013-05-03 06:32:00,
2013-05-03 02:47:00,60.1,55.0,30.03,SE,134,0.0,1.0,84,0.00,,,0.00,weatherlink.com 1.10,2013-05-03 06:47:00,
2013-05-03 03:17:00,60.3,55.0,30.03,SE,134,0.0,0.0,83,0.00,,,0.00,weatherlink.com 1.10,2013-05-03 07:17:00,
2013-05-03 03:32:00,60.3,55.0,30.03,SE,134,0.0,0.0,83,0.00,,,0.00,weatherlink.com 1.10,2013-05-03 07:32:00,
2013-05-03 03:47:00,60.0,55.0,30.03,SE,134,0.0,0.0,83,0.00,,,0.00,weatherlink.com 1.10,2013-05-03 07:47:00,
2013-05-03 04:02:00,60.4,55.0,30.03,SE,134,0.0,0.0,83,0.00,,,0.00,weatherlink.com 1.10,2013-05-03 08:02:00,
2013-05-03 04:17:00,60.6,55.0,30.03,SE,134,0.0,0.0,83,0.00,,,0.00,weatherlink.com 1.10,2013-05-03 08:17:00,
2013-05-03 04:32:00,60.1,55.0,30.03,SE,134,0.0,1.0,83,0.00,,,0.00,weatherlink.com 1.10,2013-05-03 08:32:00,
2013-05-03 04:47:00,59.9,55.0,30.03,SE,134,0.0,1.0,84,0.00,,,0.00,weatherlink.com 1.10,2013-05-03 08:47:00,
2013-05-03 05:02:00,60.3,56.0,30.03,SE,134,0.0,1.0,85,0.00,,,0.00,weatherlink.com 1.10,2013-05-03 09:02:00,
2013-05-03 05:17:00,59.8,55.0,30.03,SE,134,0.0,1.0,84,0.00,,,0.00,weatherlink.com 1.10,2013-05-03 09:17:00,
2013-05-03 05:32:00,59.6,55.0,30.03,SE,134,0.0,0.0,84,0.00,,,0.00,weatherlink.com 1.10,2013-05-03 09:32:00,
2013-05-03 05:47:00,59.9,55.0,30.03,SE,134,0.0,1.0,84,0.00,,,0.00,weatherlink.com 1.10,2013-05-03 09:47:00,
2013-05-03 06:02:00,60.5,55.0,30.04,SE,134,0.0,1.0,82,0.00,,,0.00,weatherlink.com 1.10,2013-05-03 10:02:00,
2013-05-03 06:17:00,60.7,55.0,30.03,SE,134,0.0,1.0,80,0.00,,,0.00,weatherlink.com 1.10,2013-05-03 10:17:00,
2013-05-03 06:32:00,60.8,54.0,30.04,East,101,0.0,5.0,78,0.00,,,0.00,weatherlink.com 1.10,2013-05-03 10:32:00,
2013-05-03 06:47:00,60.7,54.0,30.04,East,101,0.0,1.0,78,0.00,,,0.00,weatherlink.com 1.10,2013-05-03 10:47:00,
2013-05-03 07:02:00,60.4,54.0,30.04,East,101,0.0,1.0,79,0.00,,,0.00,weatherlink.com 1.10,2013-05-03 11:02:00,
2013-05-03 07:17:00,60.2,54.0,30.05,East,101,0.0,2.0,79,0.00,,,0.00,weatherlink.com 1.10,2013-05-03 11:17:00,
2013-05-03 07:32:00,60.8,54.0,30.05,ESE,113,0.0,3.0,78,0.00,,,0.00,weatherlink.com 1.10,2013-05-03 11:32:00,
2013-05-03 07:47:00,62.0,54.0,30.05,South,174,1.0,6.0,75,0.00,,,0.00,weatherlink.com 1.10,2013-05-03 11:47:00,
2013-05-03 08:02:00,62.8,54.0,30.05,ESE,112,1.0,8.0,72,0.00,,,0.00,weatherlink.com 1.10,2013-05-03 12:02:00,
2013-05-03 08:17:00,63.0,54.0,30.05,SE,130,1.0,6.0,72,0.00,,,0.00,weatherlink.com 1.10,2013-05-03 12:17:00,
2013-05-03 08:32:00,64.6,54.0,30.05,East,91,5.0,7.0,69,0.00,,,0.00,weatherlink.com 1.10,2013-05-03 12:32:00,
2013-05-03 08:47:00,65.4,54.0,30.05,South,175,1.0,10.0,66,0.00,,,0.00,weatherlink.com 1.10,2013-05-03 12:47:00,
2013-05-03 09:02:00,65.4,54.0,30.05,SE,138,1.0,5.0,66,0.00,,,0.00,weatherlink.com 1.10,2013-05-03 13:02:00,
2013-05-03 09:17:00,65.8,54.0,30.05,SE,134,5.0,6.0,66,0.00,,,0.00,weatherlink.com 1.10,2013-05-03 13:17:00,
2013-05-03 09:32:00,66.4,54.0,30.05,South,174,2.0,8.0,64,0.00,,,0.00,weatherlink.com 1.10,2013-05-03 13:32:00,
2013-05-03 09:47:00,66.9,54.0,30.05,SSW,198,3.0,7.0,64,0.00,,,0.00,weatherlink.com 1.10,2013-05-03 13:47:00,
2013-05-03 10:02:00,67.1,54.0,30.04,ESE,105,3.0,8.0,63,0.00,,,0.00,weatherlink.com 1.10,2013-05-03 14:02:00,
2013-05-03 10:17:00,67.8,54.0,30.04,SSE,153,1.0,9.0,62,0.00,,,0.00,weatherlink.com 1.10,2013-05-03 14:17:00,
2013-05-03 10:32:00,68.5,54.0,30.03,ESE,117,4.0,8.0,61,0.00,,,0.00,weatherlink.com 1.10,2013-05-03 14:32:00,
2013-05-03 10:47:00,69.6,54.0,30.03,South,184,6.0,8.0,59,0.00,,,0.00,weatherlink.com 1.10,2013-05-03 14:47:00,
2013-05-03 11:02:00,70.6,55.0,30.02,SSE,165,3.0,8.0,59,0.00,,,0.00,weatherlink.com 1.10,2013-05-03 15:02:00,
2013-05-03 11:18:00,70.3,55.0,30.02,ESE,114,2.0,7.0,58,0.00,,,0.00,weatherlink.com 1.10,2013-05-03 15:18:00,
2013-05-03 11:33:00,71.7,56.0,30.02,SE,133,4.0,6.0,58,0.00,,,0.00,weatherlink.com 1.10,2013-05-03 15:33:00,
2013-05-03 11:48:00,72.8,57.0,30.02,South,175,3.0,7.0,57,0.00,,,0.00,weatherlink.com 1.10,2013-05-03 15:48:00,
2013-05-03 12:18:00,75.0,57.0,30.00,ESE,121,1.0,7.0,53,0.00,,,0.00,weatherlink.com 1.10,2013-05-03 16:18:00,
2013-05-03 12:33:00,75.6,57.0,30.00,East,98,3.0,10.0,52,0.00,,,0.00,weatherlink.com 1.10,2013-05-03 16:33:00,
2013-05-03 12:48:00,75.7,57.0,29.99,ENE,77,0.0,7.0,53,0.00,,,0.00,weatherlink.com 1.10,2013-05-03 16:48:00,
2013-05-03 13:03:00,76.2,57.0,29.98,NE,35,3.0,7.0,52,0.00,,,0.00,weatherlink.com 1.10,2013-05-03 17:03:00,
2013-05-03 13:18:00,76.9,56.0,29.98,ESE,109,1.0,9.0,48,0.00,,,0.00,weatherlink.com 1.10,2013-05-03 17:18:00,
2013-05-03 13:33:00,77.6,56.0,29.97,NNE,31,3.0,8.0,48,0.00,,,0.00,weatherlink.com 1.10,2013-05-03 17:33:00,
2013-05-03 13:48:00,78.2,56.0,29.96,ESE,118,10.0,12.0,46,0.00,,,0.00,weatherlink.com 1.10,2013-05-03 17:48:00,
2013-05-03 14:03:00,78.1,56.0,29.96,SE,143,1.0,14.0,46,0.00,,,0.00,weatherlink.com 1.10,2013-05-03 18:03:00,
2013-05-03 14:18:00,78.2,56.0,29.96,ENE,71,1.0,8.0,47,0.00,,,0.00,weatherlink.com 1.10,2013-05-03 18:18:00,
2013-05-03 14:33:00,77.7,55.0,29.96,ENE,65,4.0,15.0,46,0.00,,,0.00,weatherlink.com 1.10,2013-05-03 18:33:00,
2013-05-03 14:48:00,77.2,55.0,29.95,SE,146,1.0,9.0,47,0.00,,,0.00,weatherlink.com 1.10,2013-05-03 18:48:00,
2013-05-03 15:03:00,76.6,55.0,29.95,South,183,4.0,13.0,48,0.00,,,0.00,weatherlink.com 1.10,2013-05-03 19:03:00,
2013-05-03 15:18:00,77.7,55.0,29.94,ESE,121,3.0,9.0,45,0.00,,,0.00,weatherlink.com 1.10,2013-05-03 19:18:00,
2013-05-03 15:33:00,78.6,55.0,29.94,South,181,3.0,9.0,45,0.00,,,0.00,weatherlink.com 1.10,2013-05-03 19:33:00,
2013-05-03 15:48:00,78.4,55.0,29.93,SE,144,2.0,12.0,44,0.00,,,0.00,weatherlink.com 1.10,2013-05-03 19:48:00,
2013-05-03 16:03:00,78.0,55.0,29.93,East,82,0.0,8.0,45,0.00,,,0.00,weatherlink.com 1.10,2013-05-03 20:03:00,
2013-05-03 16:18:00,78.0,55.0,29.92,ESE,120,7.0,8.0,45,0.00,,,0.00,weatherlink.com 1.10,2013-05-03 20:18:00,
2013-05-03 16:33:00,77.8,55.0,29.92,East,92,1.0,10.0,45,0.00,,,0.00,weatherlink.com 1.10,2013-05-03 20:33:00,
2013-05-03 16:48:00,78.7,54.0,29.92,NE,53,4.0,12.0,43,0.00,,,0.00,weatherlink.com 1.10,2013-05-03 20:48:00,
2013-05-03 17:03:00,78.9,54.0,29.92,SE,137,1.0,13.0,42,0.00,,,0.00,weatherlink.com 1.10,2013-05-03 21:03:00,
2013-05-03 17:18:00,78.5,54.0,29.92,East,96,2.0,6.0,43,0.00,,,0.00,weatherlink.com 1.10,2013-05-03 21:18:00,
2013-05-03 17:33:00,78.0,54.0,29.92,NE,51,0.0,9.0,44,0.00,,,0.00,weatherlink.com 1.10,2013-05-03 21:33:00,
2013-05-03 17:48:00,77.8,53.0,29.92,ESE,107,2.0,9.0,43,0.00,,,0.00,weatherlink.com 1.10,2013-05-03 21:48:00,
2013-05-03 18:03:00,77.6,53.0,29.92,ENE,60,1.0,14.0,43,0.00,,,0.00,weatherlink.com 1.10,2013-05-03 22:03:00,
2013-05-03 18:18:00,77.6,53.0,29.91,North,349,0.0,12.0,43,0.00,,,0.00,weatherlink.com 1.10,2013-05-03 22:18:00,
2013-05-03 18:33:00,77.7,51.0,29.92,South,182,3.0,8.0,39,0.00,,,0.00,weatherlink.com 1.10,2013-05-03 22:33:00,
2013-05-03 18:48:00,76.7,49.0,29.92,ESE,107,4.0,16.0,38,0.00,,,0.00,weatherlink.com 1.10,2013-05-03 22:48:00,
2013-05-03 19:03:00,75.8,48.0,29.92,SSW,200,2.0,11.0,37,0.00,,,0.00,weatherlink.com 1.10,2013-05-03 23:03:00,
2013-05-03 19:18:00,75.3,48.0,29.92,East,92,1.0,10.0,38,0.00,,,0.00,weatherlink.com 1.10,2013-05-03 23:18:00,
2013-05-03 19:34:00,74.8,47.0,29.93,East,101,0.0,7.0,38,0.00,,,0.00,weatherlink.com 1.10,2013-05-03 23:34:00,
2013-05-03 19:49:00,73.8,46.0,29.93,ENE,76,4.0,10.0,37,0.00,,,0.00,weatherlink.com 1.10,2013-05-03 23:49:00,
2013-05-03 20:04:00,72.8,44.0,29.94,ESE,113,1.0,10.0,36,0.00,,,0.00,weatherlink.com 1.10,2013-05-04 00:04:00,
2013-05-03 20:19:00,71.8,42.0,29.93,ENE,64,3.0,7.0,34,0.00,,,0.00,weatherlink.com 1.10,2013-05-04 00:19:00,
2013-05-03 20:34:00,71.4,42.0,29.93,ESE,105,1.0,8.0,34,0.00,,,0.00,weatherlink.com 1.10,2013-05-04 00:34:00,
2013-05-03 20:49:00,70.8,41.0,29.93,NE,36,1.0,3.0,34,0.00,,,0.00,weatherlink.com 1.10,2013-05-04 00:49:00,
2013-05-03 21:04:00,70.1,40.0,29.93,ESE,121,1.0,5.0,34,0.00,,,0.00,weatherlink.com 1.10,2013-05-04 01:04:00,
2013-05-03 21:19:00,69.4,41.0,29.94,SE,131,1.0,3.0,36,0.00,,,0.00,weatherlink.com 1.10,2013-05-04 01:19:00,
2013-05-03 21:34:00,68.8,41.0,29.94,SSW,202,1.0,3.0,37,0.00,,,0.00,weatherlink.com 1.10,2013-05-04 01:34:00,
2013-05-03 21:49:00,68.5,41.0,29.94,ESE,113,1.0,4.0,37,0.00,,,0.00,weatherlink.com 1.10,2013-05-04 01:49:00,
2013-05-03 22:04:00,68.5,42.0,29.95,SE,128,1.0,5.0,38,0.00,,,0.00,weatherlink.com 1.10,2013-05-04 02:04:00,
2013-05-03 22:19:00,68.3,42.0,29.95,East,82,2.0,6.0,38,0.00,,,0.00,weatherlink.com 1.10,2013-05-04 02:19:00,
2013-05-03 22:34:00,68.1,41.0,29.95,ENE,61,0.0,3.0,38,0.00,,,0.00,weatherlink.com 1.10,2013-05-04 02:34:00,
2013-05-03 22:49:00,67.9,41.0,29.95,ESE,118,0.0,7.0,38,0.00,,,0.00,weatherlink.com 1.10,2013-05-04 02:49:00,
2013-05-03 23:04:00,67.7,41.0,29.95,ESE,117,0.0,5.0,38,0.00,,,0.00,weatherlink.com 1.10,2013-05-04 03:04:00,
2013-05-03 23:19:00,67.8,40.0,29.95,East,98,2.0,8.0,37,0.00,,,0.00,weatherlink.com 1.10,2013-05-04 03:19:00,
2013-05-03 23:34:00,67.6,40.0,29.95,ESE,106,1.0,6.0,37,0.00,,,0.00,weatherlink.com 1.10,2013-05-04 03:34:00,
2013-05-03 23:49:00,67.4,39.0,29.95,ESE,105,4.0,9.0,36,0.00,,,0.00,weatherlink.com 1.10,2013-05-04 03:49:00,